sensor_id;sensor_type;location;lat;lon;timestamp;P1;durP1;ratioP1;P2;durP2;ratioP2
17079;SDS011;8655;57.106;-2.088;2023-11-19T00:02:21;0.77;;;0.77;;
17079;SDS011;8655;57.106;-2.088;2023-11-19T00:04:47;0.70;;;0.70;;
17079;SDS011;8655;57.106;-2.088;2023-11-19T00:07:13;0.70;;;0.67;;
17079;SDS011;8655;57.106;-2.088;2023-11-19T00:09:39;1.47;;;0.70;;
17079;SDS011;8655;57.106;-2.088;2023-11-19T00:12:05;0.97;;;0.70;;
17079;SDS011;8655;57.106;-2.088;2023-11-19T00:14:32;1.47;;;0.80;;
17079;SDS011;8655;57.106;-2.088;2023-11-19T00:16:58;0.73;;;0.60;;
17079;SDS011;8655;57.106;-2.088;2023-11-19T00:19:24;0.80;;;0.80;;
17079;SDS011;8655;57.106;-2.088;2023-11-19T00:21:49;0.97;;;0.50;;
17079;SDS011;8655;57.106;-2.088;2023-11-19T00:24:15;0.80;;;0.80;;
17079;SDS011;8655;57.106;-2.088;2023-11-19T00:26:42;0.70;;;0.70;;
17079;SDS011;8655;57.106;-2.088;2023-11-19T00:29:08;0.67;;;0.57;;
17079;SDS011;8655;57.106;-2.088;2023-11-19T00:31:33;0.67;;;0.60;;
17079;SDS011;8655;57.106;-2.088;2023-11-19T00:34:00;1.30;;;0.70;;
17079;SDS011;8655;57.106;-2.088;2023-11-19T00:36:26;0.93;;;0.70;;
17079;SDS011;8655;57.106;-2.088;2023-11-19T00:38:53;1.00;;;0.70;;
17079;SDS011;8655;57.106;-2.088;2023-11-19T00:41:19;1.20;;;0.80;;
17079;SDS011;8655;57.106;-2.088;2023-11-19T00:43:45;1.17;;;0.80;;
17079;SDS011;8655;57.106;-2.088;2023-11-19T00:46:10;1.43;;;0.90;;
17079;SDS011;8655;57.106;-2.088;2023-11-19T00:48:36;0.93;;;0.77;;
17079;SDS011;8655;57.106;-2.088;2023-11-19T00:51:02;1.27;;;0.90;;
17079;SDS011;8655;57.106;-2.088;2023-11-19T00:53:31;0.87;;;0.77;;
17079;SDS011;8655;57.106;-2.088;2023-11-19T00:55:57;0.70;;;0.70;;
17079;SDS011;8655;57.106;-2.088;2023-11-19T00:58:24;1.27;;;0.90;;
17079;SDS011;8655;57.106;-2.088;2023-11-19T01:00:49;1.57;;;0.90;;
17079;SDS011;8655;57.106;-2.088;2023-11-19T01:03:15;0.70;;;0.70;;
17079;SDS011;8655;57.106;-2.088;2023-11-19T01:05:41;1.10;;;0.90;;
17079;SDS011;8655;57.106;-2.088;2023-11-19T01:08:07;0.70;;;0.70;;
17079;SDS011;8655;57.106;-2.088;2023-11-19T01:10:34;0.87;;;0.80;;
17079;SDS011;8655;57.106;-2.088;2023-11-19T01:13:02;1.47;;;1.07;;
17079;SDS011;8655;57.106;-2.088;2023-11-19T01:15:30;1.57;;;0.87;;
17079;SDS011;8655;57.106;-2.088;2023-11-19T01:17:56;1.60;;;1.00;;
17079;SDS011;8655;57.106;-2.088;2023-11-19T01:20:22;1.23;;;1.10;;
17079;SDS011;8655;57.106;-2.088;2023-11-19T01:22:48;1.43;;;0.90;;
17079;SDS011;8655;57.106;-2.088;2023-11-19T01:25:14;1.00;;;0.90;;
17079;SDS011;8655;57.106;-2.088;2023-11-19T01:27:40;1.27;;;0.63;;
17079;SDS011;8655;57.106;-2.088;2023-11-19T01:30:06;1.70;;;0.70;;
17079;SDS011;8655;57.106;-2.088;2023-11-19T01:32:37;1.87;;;0.93;;
17079;SDS011;8655;57.106;-2.088;2023-11-19T01:35:03;1.03;;;0.60;;
17079;SDS011;8655;57.106;-2.088;2023-11-19T01:37:29;1.30;;;1.00;;
17079;SDS011;8655;57.106;-2.088;2023-11-19T01:39:57;1.23;;;0.95;;
17079;SDS011;8655;57.106;-2.088;2023-11-19T01:42:23;1.20;;;0.83;;
17079;SDS011;8655;57.106;-2.088;2023-11-19T01:44:57;1.53;;;1.00;;
17079;SDS011;8655;57.106;-2.088;2023-11-19T01:47:23;0.80;;;0.80;;
17079;SDS011;8655;57.106;-2.088;2023-11-19T01:49:50;1.77;;;0.83;;
17079;SDS011;8655;57.106;-2.088;2023-11-19T01:52:17;1.47;;;0.80;;
17079;SDS011;8655;57.106;-2.088;2023-11-19T01:54:43;1.10;;;0.73;;
17079;SDS011;8655;57.106;-2.088;2023-11-19T01:57:10;0.73;;;0.70;;
17079;SDS011;8655;57.106;-2.088;2023-11-19T01:59:36;1.10;;;0.87;;
17079;SDS011;8655;57.106;-2.088;2023-11-19T02:02:03;1.33;;;0.80;;
17079;SDS011;8655;57.106;-2.088;2023-11-19T02:04:30;1.40;;;1.17;;
17079;SDS011;8655;57.106;-2.088;2023-11-19T02:06:57;1.13;;;0.70;;
17079;SDS011;8655;57.106;-2.088;2023-11-19T02:09:23;1.00;;;0.70;;
17079;SDS011;8655;57.106;-2.088;2023-11-19T02:11:49;0.83;;;0.60;;
17079;SDS011;8655;57.106;-2.088;2023-11-19T02:14:16;0.77;;;0.73;;
17079;SDS011;8655;57.106;-2.088;2023-11-19T02:16:42;0.87;;;0.80;;
17079;SDS011;8655;57.106;-2.088;2023-11-19T02:19:08;0.77;;;0.73;;
17079;SDS011;8655;57.106;-2.088;2023-11-19T02:21:36;1.47;;;0.80;;
17079;SDS011;8655;57.106;-2.088;2023-11-19T02:24:03;1.53;;;0.80;;
17079;SDS011;8655;57.106;-2.088;2023-11-19T02:29:16;1.57;;;0.97;;
17079;SDS011;8655;57.106;-2.088;2023-11-19T02:31:42;1.17;;;1.03;;
17079;SDS011;8655;57.106;-2.088;2023-11-19T02:34:10;1.60;;;0.90;;
17079;SDS011;8655;57.106;-2.088;2023-11-19T02:36:37;1.23;;;0.90;;
17079;SDS011;8655;57.106;-2.088;2023-11-19T02:39:03;1.23;;;0.83;;
17079;SDS011;8655;57.106;-2.088;2023-11-19T02:41:28;2.17;;;0.90;;
17079;SDS011;8655;57.106;-2.088;2023-11-19T02:43:55;0.70;;;0.60;;
17079;SDS011;8655;57.106;-2.088;2023-11-19T02:46:20;1.40;;;0.97;;
17079;SDS011;8655;57.106;-2.088;2023-11-19T02:48:46;1.93;;;0.73;;
17079;SDS011;8655;57.106;-2.088;2023-11-19T02:53:47;1.63;;;1.00;;
17079;SDS011;8655;57.106;-2.088;2023-11-19T02:56:13;1.93;;;1.10;;
17079;SDS011;8655;57.106;-2.088;2023-11-19T02:58:50;0.77;;;0.73;;
17079;SDS011;8655;57.106;-2.088;2023-11-19T03:01:25;1.07;;;0.80;;
17079;SDS011;8655;57.106;-2.088;2023-11-19T03:03:59;1.03;;;0.80;;
17079;SDS011;8655;57.106;-2.088;2023-11-19T03:06:26;0.77;;;0.77;;
17079;SDS011;8655;57.106;-2.088;2023-11-19T03:08:54;0.87;;;0.87;;
17079;SDS011;8655;57.106;-2.088;2023-11-19T03:11:19;2.03;;;0.83;;
17079;SDS011;8655;57.106;-2.088;2023-11-19T03:13:45;0.93;;;0.83;;
17079;SDS011;8655;57.106;-2.088;2023-11-19T03:16:11;1.25;;;0.80;;
17079;SDS011;8655;57.106;-2.088;2023-11-19T03:18:37;1.57;;;0.93;;
17079;SDS011;8655;57.106;-2.088;2023-11-19T03:21:05;1.23;;;0.93;;
17079;SDS011;8655;57.106;-2.088;2023-11-19T03:23:33;1.10;;;0.73;;
17079;SDS011;8655;57.106;-2.088;2023-11-19T03:25:58;1.03;;;0.67;;
17079;SDS011;8655;57.106;-2.088;2023-11-19T03:28:26;1.17;;;0.90;;
17079;SDS011;8655;57.106;-2.088;2023-11-19T03:30:53;0.80;;;0.80;;
17079;SDS011;8655;57.106;-2.088;2023-11-19T03:33:18;1.30;;;0.90;;
17079;SDS011;8655;57.106;-2.088;2023-11-19T03:35:44;1.17;;;0.90;;
17079;SDS011;8655;57.106;-2.088;2023-11-19T03:38:11;1.73;;;0.90;;
17079;SDS011;8655;57.106;-2.088;2023-11-19T03:40:36;1.93;;;1.03;;
17079;SDS011;8655;57.106;-2.088;2023-11-19T03:43:03;1.20;;;0.90;;
17079;SDS011;8655;57.106;-2.088;2023-11-19T03:45:29;1.13;;;0.77;;
17079;SDS011;8655;57.106;-2.088;2023-11-19T03:47:55;0.70;;;0.70;;
17079;SDS011;8655;57.106;-2.088;2023-11-19T03:50:20;1.37;;;1.00;;
17079;SDS011;8655;57.106;-2.088;2023-11-19T03:52:46;1.10;;;0.90;;
17079;SDS011;8655;57.106;-2.088;2023-11-19T03:55:13;0.80;;;0.60;;
17079;SDS011;8655;57.106;-2.088;2023-11-19T03:57:38;1.17;;;0.80;;
17079;SDS011;8655;57.106;-2.088;2023-11-19T04:00:04;0.80;;;0.73;;
17079;SDS011;8655;57.106;-2.088;2023-11-19T04:02:35;1.10;;;0.90;;
17079;SDS011;8655;57.106;-2.088;2023-11-19T04:05:02;1.53;;;1.40;;
17079;SDS011;8655;57.106;-2.088;2023-11-19T04:07:29;0.90;;;0.60;;
17079;SDS011;8655;57.106;-2.088;2023-11-19T04:09:54;1.13;;;0.90;;
17079;SDS011;8655;57.106;-2.088;2023-11-19T04:12:20;1.47;;;0.80;;
17079;SDS011;8655;57.106;-2.088;2023-11-19T04:14:47;1.43;;;0.80;;
17079;SDS011;8655;57.106;-2.088;2023-11-19T04:17:12;1.50;;;0.90;;
17079;SDS011;8655;57.106;-2.088;2023-11-19T04:19:38;1.00;;;0.80;;
17079;SDS011;8655;57.106;-2.088;2023-11-19T04:22:06;1.60;;;1.00;;
17079;SDS011;8655;57.106;-2.088;2023-11-19T04:24:33;1.17;;;0.80;;
17079;SDS011;8655;57.106;-2.088;2023-11-19T04:26:59;0.83;;;0.70;;
17079;SDS011;8655;57.106;-2.088;2023-11-19T04:29:24;0.70;;;0.70;;
17079;SDS011;8655;57.106;-2.088;2023-11-19T04:31:50;0.60;;;0.60;;
17079;SDS011;8655;57.106;-2.088;2023-11-19T04:34:16;0.80;;;0.73;;
17079;SDS011;8655;57.106;-2.088;2023-11-19T04:36:41;0.70;;;0.70;;
17079;SDS011;8655;57.106;-2.088;2023-11-19T04:39:08;1.17;;;0.90;;
17079;SDS011;8655;57.106;-2.088;2023-11-19T04:41:45;1.87;;;0.80;;
17079;SDS011;8655;57.106;-2.088;2023-11-19T04:44:12;0.63;;;0.63;;
17079;SDS011;8655;57.106;-2.088;2023-11-19T04:46:37;0.83;;;0.63;;
17079;SDS011;8655;57.106;-2.088;2023-11-19T04:49:03;1.23;;;0.90;;
17079;SDS011;8655;57.106;-2.088;2023-11-19T04:51:29;0.70;;;0.70;;
17079;SDS011;8655;57.106;-2.088;2023-11-19T04:53:55;0.60;;;0.60;;
17079;SDS011;8655;57.106;-2.088;2023-11-19T04:56:21;0.80;;;0.80;;
17079;SDS011;8655;57.106;-2.088;2023-11-19T04:58:48;0.83;;;0.70;;
17079;SDS011;8655;57.106;-2.088;2023-11-19T05:01:14;0.73;;;0.73;;
17079;SDS011;8655;57.106;-2.088;2023-11-19T05:03:43;1.60;;;0.90;;
17079;SDS011;8655;57.106;-2.088;2023-11-19T05:06:09;0.80;;;0.57;;
17079;SDS011;8655;57.106;-2.088;2023-11-19T05:08:35;0.80;;;0.80;;
17079;SDS011;8655;57.106;-2.088;2023-11-19T05:11:01;0.90;;;0.73;;
17079;SDS011;8655;57.106;-2.088;2023-11-19T05:13:26;0.60;;;0.60;;
17079;SDS011;8655;57.106;-2.088;2023-11-19T05:15:52;1.27;;;0.70;;
17079;SDS011;8655;57.106;-2.088;2023-11-19T05:18:18;1.60;;;1.00;;
17079;SDS011;8655;57.106;-2.088;2023-11-19T05:20:44;0.60;;;0.60;;
17079;SDS011;8655;57.106;-2.088;2023-11-19T05:23:10;0.97;;;0.70;;
17079;SDS011;8655;57.106;-2.088;2023-11-19T05:25:36;1.20;;;0.80;;
17079;SDS011;8655;57.106;-2.088;2023-11-19T05:28:02;0.90;;;0.70;;
17079;SDS011;8655;57.106;-2.088;2023-11-19T05:30:28;0.77;;;0.60;;
17079;SDS011;8655;57.106;-2.088;2023-11-19T05:32:53;0.73;;;0.63;;
17079;SDS011;8655;57.106;-2.088;2023-11-19T05:35:19;0.63;;;0.63;;
17079;SDS011;8655;57.106;-2.088;2023-11-19T05:37:44;0.73;;;0.70;;
17079;SDS011;8655;57.106;-2.088;2023-11-19T05:40:10;0.90;;;0.77;;
17079;SDS011;8655;57.106;-2.088;2023-11-19T05:42:45;0.80;;;0.80;;
17079;SDS011;8655;57.106;-2.088;2023-11-19T05:45:12;0.80;;;0.80;;
17079;SDS011;8655;57.106;-2.088;2023-11-19T05:47:38;0.70;;;0.67;;
17079;SDS011;8655;57.106;-2.088;2023-11-19T05:50:04;1.00;;;0.70;;
17079;SDS011;8655;57.106;-2.088;2023-11-19T05:52:31;0.90;;;0.60;;
17079;SDS011;8655;57.106;-2.088;2023-11-19T05:55:01;1.13;;;0.67;;
17079;SDS011;8655;57.106;-2.088;2023-11-19T05:57:38;0.70;;;0.70;;
17079;SDS011;8655;57.106;-2.088;2023-11-19T06:00:05;0.60;;;0.60;;
17079;SDS011;8655;57.106;-2.088;2023-11-19T06:02:32;0.60;;;0.60;;
17079;SDS011;8655;57.106;-2.088;2023-11-19T06:04:58;1.07;;;0.60;;
17079;SDS011;8655;57.106;-2.088;2023-11-19T06:07:24;0.60;;;0.60;;
17079;SDS011;8655;57.106;-2.088;2023-11-19T06:09:50;0.77;;;0.70;;
17079;SDS011;8655;57.106;-2.088;2023-11-19T06:12:15;0.57;;;0.57;;
17079;SDS011;8655;57.106;-2.088;2023-11-19T06:14:41;0.60;;;0.60;;
17079;SDS011;8655;57.106;-2.088;2023-11-19T06:17:07;0.70;;;0.57;;
17079;SDS011;8655;57.106;-2.088;2023-11-19T06:19:33;0.70;;;0.70;;
17079;SDS011;8655;57.106;-2.088;2023-11-19T06:21:59;1.10;;;0.60;;
17079;SDS011;8655;57.106;-2.088;2023-11-19T06:24:25;0.40;;;0.40;;
17079;SDS011;8655;57.106;-2.088;2023-11-19T06:26:50;1.03;;;0.60;;
17079;SDS011;8655;57.106;-2.088;2023-11-19T06:29:16;0.90;;;0.80;;
17079;SDS011;8655;57.106;-2.088;2023-11-19T06:31:44;0.70;;;0.70;;
17079;SDS011;8655;57.106;-2.088;2023-11-19T06:34:10;1.40;;;0.70;;
17079;SDS011;8655;57.106;-2.088;2023-11-19T06:36:36;0.80;;;0.60;;
17079;SDS011;8655;57.106;-2.088;2023-11-19T06:39:03;0.60;;;0.60;;
17079;SDS011;8655;57.106;-2.088;2023-11-19T06:41:29;0.53;;;0.53;;
17079;SDS011;8655;57.106;-2.088;2023-11-19T06:43:54;0.77;;;0.50;;
17079;SDS011;8655;57.106;-2.088;2023-11-19T06:46:20;0.87;;;0.40;;
17079;SDS011;8655;57.106;-2.088;2023-11-19T06:48:46;0.87;;;0.67;;
17079;SDS011;8655;57.106;-2.088;2023-11-19T06:51:12;0.93;;;0.80;;
17079;SDS011;8655;57.106;-2.088;2023-11-19T06:53:38;0.60;;;0.60;;
17079;SDS011;8655;57.106;-2.088;2023-11-19T06:56:17;0.60;;;0.43;;
17079;SDS011;8655;57.106;-2.088;2023-11-19T06:58:43;0.60;;;0.60;;
17079;SDS011;8655;57.106;-2.088;2023-11-19T07:01:09;0.70;;;0.57;;
17079;SDS011;8655;57.106;-2.088;2023-11-19T07:03:35;1.17;;;0.60;;
17079;SDS011;8655;57.106;-2.088;2023-11-19T07:06:01;0.93;;;0.60;;
17079;SDS011;8655;57.106;-2.088;2023-11-19T07:08:28;0.60;;;0.40;;
17079;SDS011;8655;57.106;-2.088;2023-11-19T07:10:54;0.57;;;0.50;;
17079;SDS011;8655;57.106;-2.088;2023-11-19T07:13:20;0.57;;;0.53;;
17079;SDS011;8655;57.106;-2.088;2023-11-19T07:15:46;0.60;;;0.60;;
17079;SDS011;8655;57.106;-2.088;2023-11-19T07:18:11;0.93;;;0.70;;
17079;SDS011;8655;57.106;-2.088;2023-11-19T07:20:37;0.50;;;0.50;;
17079;SDS011;8655;57.106;-2.088;2023-11-19T07:23:03;1.23;;;0.52;;
17079;SDS011;8655;57.106;-2.088;2023-11-19T07:25:29;0.60;;;0.60;;
17079;SDS011;8655;57.106;-2.088;2023-11-19T07:27:55;0.73;;;0.50;;
17079;SDS011;8655;57.106;-2.088;2023-11-19T07:30:21;0.80;;;0.50;;
17079;SDS011;8655;57.106;-2.088;2023-11-19T07:32:47;0.40;;;0.40;;
17079;SDS011;8655;57.106;-2.088;2023-11-19T07:35:13;0.87;;;0.60;;
17079;SDS011;8655;57.106;-2.088;2023-11-19T07:37:40;0.68;;;0.60;;
17079;SDS011;8655;57.106;-2.088;2023-11-19T07:40:07;0.33;;;0.33;;
17079;SDS011;8655;57.106;-2.088;2023-11-19T07:42:33;0.80;;;0.57;;
17079;SDS011;8655;57.106;-2.088;2023-11-19T07:44:59;0.60;;;0.60;;
17079;SDS011;8655;57.106;-2.088;2023-11-19T07:47:24;0.70;;;0.60;;
17079;SDS011;8655;57.106;-2.088;2023-11-19T07:49:50;1.10;;;0.57;;
17079;SDS011;8655;57.106;-2.088;2023-11-19T07:52:16;0.47;;;0.47;;
17079;SDS011;8655;57.106;-2.088;2023-11-19T07:54:41;1.08;;;0.80;;
17079;SDS011;8655;57.106;-2.088;2023-11-19T07:57:07;0.57;;;0.57;;
17079;SDS011;8655;57.106;-2.088;2023-11-19T07:59:33;0.50;;;0.50;;
17079;SDS011;8655;57.106;-2.088;2023-11-19T08:01:58;0.38;;;0.38;;
17079;SDS011;8655;57.106;-2.088;2023-11-19T08:04:24;0.60;;;0.60;;
17079;SDS011;8655;57.106;-2.088;2023-11-19T08:06:50;0.53;;;0.53;;
17079;SDS011;8655;57.106;-2.088;2023-11-19T08:09:16;0.80;;;0.70;;
17079;SDS011;8655;57.106;-2.088;2023-11-19T08:11:42;1.17;;;0.70;;
17079;SDS011;8655;57.106;-2.088;2023-11-19T08:14:08;0.93;;;0.67;;
17079;SDS011;8655;57.106;-2.088;2023-11-19T08:16:34;0.57;;;0.53;;
17079;SDS011;8655;57.106;-2.088;2023-11-19T08:19:01;0.57;;;0.57;;
17079;SDS011;8655;57.106;-2.088;2023-11-19T08:21:28;0.63;;;0.50;;
17079;SDS011;8655;57.106;-2.088;2023-11-19T08:23:54;0.50;;;0.50;;
17079;SDS011;8655;57.106;-2.088;2023-11-19T08:26:19;0.63;;;0.50;;
17079;SDS011;8655;57.106;-2.088;2023-11-19T08:28:45;0.85;;;0.60;;
17079;SDS011;8655;57.106;-2.088;2023-11-19T08:31:11;0.50;;;0.45;;
17079;SDS011;8655;57.106;-2.088;2023-11-19T08:33:36;0.50;;;0.50;;
17079;SDS011;8655;57.106;-2.088;2023-11-19T08:36:02;0.70;;;0.70;;
17079;SDS011;8655;57.106;-2.088;2023-11-19T08:38:29;0.70;;;0.70;;
17079;SDS011;8655;57.106;-2.088;2023-11-19T08:40:54;0.65;;;0.50;;
17079;SDS011;8655;57.106;-2.088;2023-11-19T08:43:24;0.82;;;0.50;;
17079;SDS011;8655;57.106;-2.088;2023-11-19T08:45:50;0.75;;;0.60;;
17079;SDS011;8655;57.106;-2.088;2023-11-19T08:48:16;0.83;;;0.50;;
17079;SDS011;8655;57.106;-2.088;2023-11-19T08:50:42;1.43;;;0.53;;
17079;SDS011;8655;57.106;-2.088;2023-11-19T08:53:07;0.50;;;0.50;;
17079;SDS011;8655;57.106;-2.088;2023-11-19T08:55:33;0.50;;;0.50;;
17079;SDS011;8655;57.106;-2.088;2023-11-19T08:57:59;0.63;;;0.57;;
17079;SDS011;8655;57.106;-2.088;2023-11-19T09:00:24;0.32;;;0.32;;
17079;SDS011;8655;57.106;-2.088;2023-11-19T09:02:50;1.15;;;0.57;;
17079;SDS011;8655;57.106;-2.088;2023-11-19T09:05:16;0.52;;;0.52;;
17079;SDS011;8655;57.106;-2.088;2023-11-19T09:07:41;0.30;;;0.30;;
17079;SDS011;8655;57.106;-2.088;2023-11-19T09:10:07;0.63;;;0.60;;
17079;SDS011;8655;57.106;-2.088;2023-11-19T09:12:33;0.50;;;0.50;;
17079;SDS011;8655;57.106;-2.088;2023-11-19T09:15:00;0.40;;;0.40;;
17079;SDS011;8655;57.106;-2.088;2023-11-19T09:17:25;0.40;;;0.40;;
17079;SDS011;8655;57.106;-2.088;2023-11-19T09:19:51;0.30;;;0.30;;
17079;SDS011;8655;57.106;-2.088;2023-11-19T09:22:17;0.60;;;0.60;;
17079;SDS011;8655;57.106;-2.088;2023-11-19T09:24:42;0.73;;;0.57;;
17079;SDS011;8655;57.106;-2.088;2023-11-19T09:27:09;0.47;;;0.47;;
17079;SDS011;8655;57.106;-2.088;2023-11-19T09:29:35;0.47;;;0.47;;
17079;SDS011;8655;57.106;-2.088;2023-11-19T09:32:01;0.50;;;0.50;;
17079;SDS011;8655;57.106;-2.088;2023-11-19T09:34:27;0.50;;;0.50;;
17079;SDS011;8655;57.106;-2.088;2023-11-19T09:36:53;0.50;;;0.50;;
17079;SDS011;8655;57.106;-2.088;2023-11-19T09:39:18;0.50;;;0.50;;
17079;SDS011;8655;57.106;-2.088;2023-11-19T09:41:45;0.50;;;0.30;;
17079;SDS011;8655;57.106;-2.088;2023-11-19T09:44:12;0.37;;;0.37;;
17079;SDS011;8655;57.106;-2.088;2023-11-19T09:46:40;0.60;;;0.40;;
17079;SDS011;8655;57.106;-2.088;2023-11-19T09:49:06;0.50;;;0.40;;
17079;SDS011;8655;57.106;-2.088;2023-11-19T09:51:35;0.35;;;0.35;;
17079;SDS011;8655;57.106;-2.088;2023-11-19T09:54:01;1.13;;;0.60;;
17079;SDS011;8655;57.106;-2.088;2023-11-19T09:56:30;0.60;;;0.60;;
17079;SDS011;8655;57.106;-2.088;2023-11-19T09:58:56;0.63;;;0.60;;
17079;SDS011;8655;57.106;-2.088;2023-11-19T10:01:22;0.52;;;0.52;;
17079;SDS011;8655;57.106;-2.088;2023-11-19T10:03:49;0.47;;;0.40;;
17079;SDS011;8655;57.106;-2.088;2023-11-19T10:06:17;0.70;;;0.50;;
17079;SDS011;8655;57.106;-2.088;2023-11-19T10:08:44;0.75;;;0.40;;
17079;SDS011;8655;57.106;-2.088;2023-11-19T10:11:09;0.40;;;0.40;;
17079;SDS011;8655;57.106;-2.088;2023-11-19T10:13:38;0.40;;;0.40;;
17079;SDS011;8655;57.106;-2.088;2023-11-19T10:16:07;0.67;;;0.60;;
17079;SDS011;8655;57.106;-2.088;2023-11-19T10:18:34;0.50;;;0.40;;
17079;SDS011;8655;57.106;-2.088;2023-11-19T10:21:05;0.73;;;0.43;;
17079;SDS011;8655;57.106;-2.088;2023-11-19T10:23:44;0.70;;;0.57;;
17079;SDS011;8655;57.106;-2.088;2023-11-19T10:26:14;0.37;;;0.33;;
17079;SDS011;8655;57.106;-2.088;2023-11-19T10:28:40;0.93;;;0.50;;
17079;SDS011;8655;57.106;-2.088;2023-11-19T10:31:09;0.40;;;0.30;;
17079;SDS011;8655;57.106;-2.088;2023-11-19T10:33:34;0.67;;;0.50;;
17079;SDS011;8655;57.106;-2.088;2023-11-19T10:36:00;1.47;;;0.60;;
17079;SDS011;8655;57.106;-2.088;2023-11-19T10:38:26;0.93;;;0.50;;
17079;SDS011;8655;57.106;-2.088;2023-11-19T10:40:52;0.70;;;0.70;;
17079;SDS011;8655;57.106;-2.088;2023-11-19T10:43:20;0.53;;;0.50;;
17079;SDS011;8655;57.106;-2.088;2023-11-19T10:45:49;0.63;;;0.60;;
17079;SDS011;8655;57.106;-2.088;2023-11-19T10:48:16;0.60;;;0.60;;
17079;SDS011;8655;57.106;-2.088;2023-11-19T10:50:42;0.63;;;0.50;;
17079;SDS011;8655;57.106;-2.088;2023-11-19T10:53:10;0.60;;;0.40;;
17079;SDS011;8655;57.106;-2.088;2023-11-19T10:55:38;0.50;;;0.50;;
17079;SDS011;8655;57.106;-2.088;2023-11-19T10:58:07;0.40;;;0.40;;
17079;SDS011;8655;57.106;-2.088;2023-11-19T11:00:44;0.30;;;0.30;;
17079;SDS011;8655;57.106;-2.088;2023-11-19T11:03:23;0.80;;;0.63;;
17079;SDS011;8655;57.106;-2.088;2023-11-19T11:05:50;0.50;;;0.50;;
17079;SDS011;8655;57.106;-2.088;2023-11-19T11:08:17;0.53;;;0.50;;
17079;SDS011;8655;57.106;-2.088;2023-11-19T11:10:56;0.40;;;0.40;;
17079;SDS011;8655;57.106;-2.088;2023-11-19T11:13:23;0.57;;;0.50;;
17079;SDS011;8655;57.106;-2.088;2023-11-19T11:15:50;0.40;;;0.40;;
17079;SDS011;8655;57.106;-2.088;2023-11-19T11:18:16;0.40;;;0.40;;
17079;SDS011;8655;57.106;-2.088;2023-11-19T11:20:46;0.47;;;0.40;;
17079;SDS011;8655;57.106;-2.088;2023-11-19T11:31:48;0.30;;;0.30;;
17079;SDS011;8655;57.106;-2.088;2023-11-19T11:39:39;0.47;;;0.40;;
17079;SDS011;8655;57.106;-2.088;2023-11-19T11:44:59;0.50;;;0.50;;
17079;SDS011;8655;57.106;-2.088;2023-11-19T11:50:09;0.40;;;0.40;;
17079;SDS011;8655;57.106;-2.088;2023-11-19T11:55:26;0.67;;;0.57;;
17079;SDS011;8655;57.106;-2.088;2023-11-19T11:58:03;0.40;;;0.40;;
17079;SDS011;8655;57.106;-2.088;2023-11-19T12:00:37;0.50;;;0.50;;
17079;SDS011;8655;57.106;-2.088;2023-11-19T12:03:05;0.50;;;0.50;;
17079;SDS011;8655;57.106;-2.088;2023-11-19T12:05:32;0.53;;;0.50;;
17079;SDS011;8655;57.106;-2.088;2023-11-19T12:08:05;0.50;;;0.43;;
17079;SDS011;8655;57.106;-2.088;2023-11-19T12:10:36;0.47;;;0.47;;
17079;SDS011;8655;57.106;-2.088;2023-11-19T12:13:17;0.50;;;0.50;;
17079;SDS011;8655;57.106;-2.088;2023-11-19T12:16:29;0.90;;;0.70;;
17079;SDS011;8655;57.106;-2.088;2023-11-19T12:18:30;0.87;;;0.60;;
17079;SDS011;8655;57.106;-2.088;2023-11-19T12:20:57;1.00;;;0.67;;
17079;SDS011;8655;57.106;-2.088;2023-11-19T12:23:27;0.57;;;0.43;;
17079;SDS011;8655;57.106;-2.088;2023-11-19T12:25:54;0.70;;;0.60;;
17079;SDS011;8655;57.106;-2.088;2023-11-19T12:28:20;0.70;;;0.60;;
17079;SDS011;8655;57.106;-2.088;2023-11-19T12:30:46;0.60;;;0.60;;
17079;SDS011;8655;57.106;-2.088;2023-11-19T12:33:13;0.50;;;0.50;;
17079;SDS011;8655;57.106;-2.088;2023-11-19T12:35:43;0.40;;;0.40;;
17079;SDS011;8655;57.106;-2.088;2023-11-19T12:40:46;0.53;;;0.40;;
17079;SDS011;8655;57.106;-2.088;2023-11-19T12:43:20;0.60;;;0.43;;
17079;SDS011;8655;57.106;-2.088;2023-11-19T12:45:49;1.07;;;0.60;;
17079;SDS011;8655;57.106;-2.088;2023-11-19T12:48:15;0.50;;;0.50;;
17079;SDS011;8655;57.106;-2.088;2023-11-19T12:50:53;0.50;;;0.50;;
17079;SDS011;8655;57.106;-2.088;2023-11-19T12:53:24;0.30;;;0.30;;
17079;SDS011;8655;57.106;-2.088;2023-11-19T12:55:52;0.60;;;0.60;;
17079;SDS011;8655;57.106;-2.088;2023-11-19T12:58:28;0.30;;;0.30;;
17079;SDS011;8655;57.106;-2.088;2023-11-19T13:01:05;0.40;;;0.30;;
17079;SDS011;8655;57.106;-2.088;2023-11-19T13:03:33;0.80;;;0.60;;
17079;SDS011;8655;57.106;-2.088;2023-11-19T13:06:03;0.70;;;0.60;;
17079;SDS011;8655;57.106;-2.088;2023-11-19T13:08:29;1.33;;;0.37;;
17079;SDS011;8655;57.106;-2.088;2023-11-19T13:11:02;0.60;;;0.60;;
17079;SDS011;8655;57.106;-2.088;2023-11-19T13:13:28;0.73;;;0.57;;
17079;SDS011;8655;57.106;-2.088;2023-11-19T13:16:01;0.93;;;0.53;;
17079;SDS011;8655;57.106;-2.088;2023-11-19T13:18:28;0.40;;;0.40;;
17079;SDS011;8655;57.106;-2.088;2023-11-19T13:20:53;0.97;;;0.60;;
17079;SDS011;8655;57.106;-2.088;2023-11-19T13:23:22;0.83;;;0.77;;
17079;SDS011;8655;57.106;-2.088;2023-11-19T13:25:48;0.47;;;0.47;;
17079;SDS011;8655;57.106;-2.088;2023-11-19T13:28:14;0.57;;;0.50;;
17079;SDS011;8655;57.106;-2.088;2023-11-19T13:30:39;1.23;;;0.67;;
17079;SDS011;8655;57.106;-2.088;2023-11-19T13:33:05;0.63;;;0.50;;
17079;SDS011;8655;57.106;-2.088;2023-11-19T13:35:31;0.53;;;0.50;;
17079;SDS011;8655;57.106;-2.088;2023-11-19T13:37:56;0.90;;;0.60;;
17079;SDS011;8655;57.106;-2.088;2023-11-19T13:40:23;1.60;;;0.70;;
17079;SDS011;8655;57.106;-2.088;2023-11-19T13:42:49;1.03;;;0.77;;
17079;SDS011;8655;57.106;-2.088;2023-11-19T13:45:15;0.60;;;0.60;;
17079;SDS011;8655;57.106;-2.088;2023-11-19T13:47:43;0.63;;;0.60;;
17079;SDS011;8655;57.106;-2.088;2023-11-19T13:50:14;1.40;;;0.80;;
17079;SDS011;8655;57.106;-2.088;2023-11-19T13:52:41;0.73;;;0.60;;
17079;SDS011;8655;57.106;-2.088;2023-11-19T13:55:10;1.47;;;0.70;;
17079;SDS011;8655;57.106;-2.088;2023-11-19T13:57:38;3.20;;;0.80;;
17079;SDS011;8655;57.106;-2.088;2023-11-19T14:00:05;1.70;;;0.80;;
17079;SDS011;8655;57.106;-2.088;2023-11-19T14:02:36;0.80;;;0.70;;
17079;SDS011;8655;57.106;-2.088;2023-11-19T14:05:02;1.27;;;0.60;;
17079;SDS011;8655;57.106;-2.088;2023-11-19T14:07:27;0.70;;;0.70;;
17079;SDS011;8655;57.106;-2.088;2023-11-19T14:09:53;1.50;;;0.70;;
17079;SDS011;8655;57.106;-2.088;2023-11-19T14:12:19;2.10;;;0.97;;
17079;SDS011;8655;57.106;-2.088;2023-11-19T14:14:45;1.33;;;0.73;;
17079;SDS011;8655;57.106;-2.088;2023-11-19T14:17:11;1.70;;;0.90;;
17079;SDS011;8655;57.106;-2.088;2023-11-19T14:19:36;0.80;;;0.80;;
17079;SDS011;8655;57.106;-2.088;2023-11-19T14:22:04;0.77;;;0.70;;
17079;SDS011;8655;57.106;-2.088;2023-11-19T14:24:30;1.63;;;0.80;;
17079;SDS011;8655;57.106;-2.088;2023-11-19T14:26:56;0.97;;;0.67;;
17079;SDS011;8655;57.106;-2.088;2023-11-19T14:29:24;1.37;;;0.80;;
17079;SDS011;8655;57.106;-2.088;2023-11-19T14:31:51;1.33;;;0.70;;
17079;SDS011;8655;57.106;-2.088;2023-11-19T14:34:17;0.60;;;0.60;;
17079;SDS011;8655;57.106;-2.088;2023-11-19T14:36:44;1.97;;;0.93;;
17079;SDS011;8655;57.106;-2.088;2023-11-19T14:39:10;1.17;;;0.73;;
17079;SDS011;8655;57.106;-2.088;2023-11-19T14:41:35;1.93;;;0.90;;
17079;SDS011;8655;57.106;-2.088;2023-11-19T14:44:01;1.73;;;0.90;;
17079;SDS011;8655;57.106;-2.088;2023-11-19T14:46:28;1.03;;;0.80;;
17079;SDS011;8655;57.106;-2.088;2023-11-19T14:48:54;1.52;;;0.90;;
17079;SDS011;8655;57.106;-2.088;2023-11-19T14:51:19;1.20;;;0.90;;
17079;SDS011;8655;57.106;-2.088;2023-11-19T14:53:46;1.40;;;0.90;;
17079;SDS011;8655;57.106;-2.088;2023-11-19T14:56:11;1.20;;;0.90;;
17079;SDS011;8655;57.106;-2.088;2023-11-19T14:58:41;0.93;;;0.70;;
17079;SDS011;8655;57.106;-2.088;2023-11-19T15:01:07;0.60;;;0.60;;
17079;SDS011;8655;57.106;-2.088;2023-11-19T15:03:37;1.17;;;0.80;;
17079;SDS011;8655;57.106;-2.088;2023-11-19T15:06:02;1.50;;;0.80;;
17079;SDS011;8655;57.106;-2.088;2023-11-19T15:08:28;1.47;;;0.70;;
17079;SDS011;8655;57.106;-2.088;2023-11-19T15:10:55;1.00;;;0.80;;
17079;SDS011;8655;57.106;-2.088;2023-11-19T15:13:23;0.90;;;0.83;;
17079;SDS011;8655;57.106;-2.088;2023-11-19T15:15:49;1.43;;;0.80;;
17079;SDS011;8655;57.106;-2.088;2023-11-19T15:18:15;0.67;;;0.67;;